sensor_id;sensor_type;location;lat;lon;timestamp;P1;durP1;ratioP1;P2;durP2;ratioP2
12005;SDS011;6062;47.294;12.182;2022-11-27T00:01:13;0.50;;;0.50;;
12005;SDS011;6062;47.294;12.182;2022-11-27T00:03:46;0.50;;;0.50;;
12005;SDS011;6062;47.294;12.182;2022-11-27T00:06:14;0.50;;;0.50;;
12005;SDS011;6062;47.294;12.182;2022-11-27T00:08:43;0.50;;;0.50;;
12005;SDS011;6062;47.294;12.182;2022-11-27T00:11:11;0.60;;;0.60;;
12005;SDS011;6062;47.294;12.182;2022-11-27T00:13:43;0.50;;;0.50;;
12005;SDS011;6062;47.294;12.182;2022-11-27T00:16:10;0.40;;;0.40;;
12005;SDS011;6062;47.294;12.182;2022-11-27T00:18:38;0.60;;;0.60;;
12005;SDS011;6062;47.294;12.182;2022-11-27T00:21:12;0.60;;;0.50;;
12005;SDS011;6062;47.294;12.182;2022-11-27T00:23:57;0.50;;;0.50;;
12005;SDS011;6062;47.294;12.182;2022-11-27T00:26:26;0.50;;;0.50;;
12005;SDS011;6062;47.294;12.182;2022-11-27T00:28:53;0.50;;;0.40;;
12005;SDS011;6062;47.294;12.182;2022-11-27T00:31:20;0.60;;;0.60;;
12005;SDS011;6062;47.294;12.182;2022-11-27T00:33:58;0.60;;;0.60;;
12005;SDS011;6062;47.294;12.182;2022-11-27T00:36:27;0.50;;;0.50;;
12005;SDS011;6062;47.294;12.182;2022-11-27T00:38:55;0.60;;;0.60;;
12005;SDS011;6062;47.294;12.182;2022-11-27T00:41:24;0.60;;;0.60;;
12005;SDS011;6062;47.294;12.182;2022-11-27T00:43:54;0.63;;;0.63;;
12005;SDS011;6062;47.294;12.182;2022-11-27T00:46:22;0.60;;;0.60;;
12005;SDS011;6062;47.294;12.182;2022-11-27T00:48:53;0.70;;;0.70;;
12005;SDS011;6062;47.294;12.182;2022-11-27T00:51:21;0.77;;;0.60;;
12005;SDS011;6062;47.294;12.182;2022-11-27T00:53:49;0.50;;;0.50;;
12005;SDS011;6062;47.294;12.182;2022-11-27T00:56:16;0.50;;;0.50;;
12005;SDS011;6062;47.294;12.182;2022-11-27T00:58:55;0.50;;;0.50;;
12005;SDS011;6062;47.294;12.182;2022-11-27T01:01:24;0.50;;;0.50;;
12005;SDS011;6062;47.294;12.182;2022-11-27T01:03:54;0.50;;;0.50;;
12005;SDS011;6062;47.294;12.182;2022-11-27T01:06:22;0.60;;;0.60;;
12005;SDS011;6062;47.294;12.182;2022-11-27T01:08:49;0.60;;;0.60;;
12005;SDS011;6062;47.294;12.182;2022-11-27T01:11:17;0.60;;;0.60;;
12005;SDS011;6062;47.294;12.182;2022-11-27T01:13:47;0.60;;;0.60;;
12005;SDS011;6062;47.294;12.182;2022-11-27T01:16:15;0.60;;;0.60;;
12005;SDS011;6062;47.294;12.182;2022-11-27T01:18:45;0.60;;;0.60;;
12005;SDS011;6062;47.294;12.182;2022-11-27T01:21:13;0.63;;;0.63;;
12005;SDS011;6062;47.294;12.182;2022-11-27T01:23:41;0.67;;;0.67;;
12005;SDS011;6062;47.294;12.182;2022-11-27T01:26:08;0.50;;;0.50;;
12005;SDS011;6062;47.294;12.182;2022-11-27T01:28:36;0.43;;;0.43;;
12005;SDS011;6062;47.294;12.182;2022-11-27T01:31:08;0.40;;;0.40;;
12005;SDS011;6062;47.294;12.182;2022-11-27T01:33:37;0.50;;;0.50;;
12005;SDS011;6062;47.294;12.182;2022-11-27T01:36:04;0.50;;;0.50;;
12005;SDS011;6062;47.294;12.182;2022-11-27T01:38:32;0.50;;;0.50;;
12005;SDS011;6062;47.294;12.182;2022-11-27T01:41:03;0.53;;;0.53;;
12005;SDS011;6062;47.294;12.182;2022-11-27T01:43:37;0.33;;;0.33;;
12005;SDS011;6062;47.294;12.182;2022-11-27T01:46:29;0.40;;;0.40;;
12005;SDS011;6062;47.294;12.182;2022-11-27T01:51:47;0.40;;;0.40;;
12005;SDS011;6062;47.294;12.182;2022-11-27T01:54:25;0.60;;;0.60;;
12005;SDS011;6062;47.294;12.182;2022-11-27T01:56:57;0.40;;;0.40;;
12005;SDS011;6062;47.294;12.182;2022-11-27T01:59:30;0.50;;;0.50;;
12005;SDS011;6062;47.294;12.182;2022-11-27T02:01:56;0.50;;;0.50;;
12005;SDS011;6062;47.294;12.182;2022-11-27T02:04:21;0.50;;;0.50;;
12005;SDS011;6062;47.294;12.182;2022-11-27T02:06:47;0.50;;;0.50;;
12005;SDS011;6062;47.294;12.182;2022-11-27T02:09:13;0.50;;;0.50;;
12005;SDS011;6062;47.294;12.182;2022-11-27T02:11:47;0.50;;;0.50;;
12005;SDS011;6062;47.294;12.182;2022-11-27T02:14:32;0.40;;;0.40;;
12005;SDS011;6062;47.294;12.182;2022-11-27T02:17:11;0.50;;;0.50;;
12005;SDS011;6062;47.294;12.182;2022-11-27T02:19:58;0.40;;;0.40;;
12005;SDS011;6062;47.294;12.182;2022-11-27T02:23:00;0.40;;;0.40;;
12005;SDS011;6062;47.294;12.182;2022-11-27T02:29:07;0.50;;;0.50;;
12005;SDS011;6062;47.294;12.182;2022-11-27T02:34:23;0.40;;;0.40;;
12005;SDS011;6062;47.294;12.182;2022-11-27T02:43:14;0.70;;;0.70;;
12005;SDS011;6062;47.294;12.182;2022-11-27T02:45:48;0.40;;;0.40;;
12005;SDS011;6062;47.294;12.182;2022-11-27T02:48:17;0.40;;;0.40;;
12005;SDS011;6062;47.294;12.182;2022-11-27T02:50:48;0.50;;;0.50;;
12005;SDS011;6062;47.294;12.182;2022-11-27T02:53:18;0.40;;;0.40;;
12005;SDS011;6062;47.294;12.182;2022-11-27T02:55:50;0.50;;;0.50;;
12005;SDS011;6062;47.294;12.182;2022-11-27T02:58:21;0.50;;;0.50;;
12005;SDS011;6062;47.294;12.182;2022-11-27T03:00:51;0.50;;;0.50;;
12005;SDS011;6062;47.294;12.182;2022-11-27T03:03:22;0.40;;;0.40;;
12005;SDS011;6062;47.294;12.182;2022-11-27T03:05:56;0.43;;;0.43;;
12005;SDS011;6062;47.294;12.182;2022-11-27T03:11:11;0.50;;;0.50;;
12005;SDS011;6062;47.294;12.182;2022-11-27T03:13:41;0.40;;;0.40;;
12005;SDS011;6062;47.294;12.182;2022-11-27T03:16:18;0.50;;;0.50;;
12005;SDS011;6062;47.294;12.182;2022-11-27T03:19:06;0.70;;;0.70;;
12005;SDS011;6062;47.294;12.182;2022-11-27T03:21:52;0.70;;;0.70;;
12005;SDS011;6062;47.294;12.182;2022-11-27T03:24:22;0.60;;;0.60;;
12005;SDS011;6062;47.294;12.182;2022-11-27T03:26:49;0.67;;;0.67;;
12005;SDS011;6062;47.294;12.182;2022-11-27T03:29:17;0.70;;;0.70;;
12005;SDS011;6062;47.294;12.182;2022-11-27T03:32:09;0.60;;;0.60;;
12005;SDS011;6062;47.294;12.182;2022-11-27T03:34:35;0.40;;;0.40;;
12005;SDS011;6062;47.294;12.182;2022-11-27T03:37:01;0.70;;;0.70;;
12005;SDS011;6062;47.294;12.182;2022-11-27T03:39:28;0.63;;;0.63;;
12005;SDS011;6062;47.294;12.182;2022-11-27T03:48:01;0.47;;;0.47;;
12005;SDS011;6062;47.294;12.182;2022-11-27T03:53:47;0.50;;;0.50;;
12005;SDS011;6062;47.294;12.182;2022-11-27T03:56:38;0.60;;;0.60;;
12005;SDS011;6062;47.294;12.182;2022-11-27T03:59:13;0.60;;;0.60;;
12005;SDS011;6062;47.294;12.182;2022-11-27T04:01:44;0.60;;;0.60;;
12005;SDS011;6062;47.294;12.182;2022-11-27T04:04:11;0.60;;;0.60;;
12005;SDS011;6062;47.294;12.182;2022-11-27T04:06:37;0.70;;;0.70;;
12005;SDS011;6062;47.294;12.182;2022-11-27T04:09:03;0.50;;;0.50;;
12005;SDS011;6062;47.294;12.182;2022-11-27T04:11:29;0.57;;;0.57;;
12005;SDS011;6062;47.294;12.182;2022-11-27T04:13:55;0.60;;;0.60;;
12005;SDS011;6062;47.294;12.182;2022-11-27T04:16:20;0.67;;;0.67;;
12005;SDS011;6062;47.294;12.182;2022-11-27T04:18:46;0.60;;;0.60;;
12005;SDS011;6062;47.294;12.182;2022-11-27T04:21:12;0.60;;;0.60;;
12005;SDS011;6062;47.294;12.182;2022-11-27T04:23:38;0.50;;;0.50;;
12005;SDS011;6062;47.294;12.182;2022-11-27T04:26:04;0.67;;;0.67;;
12005;SDS011;6062;47.294;12.182;2022-11-27T04:28:30;0.40;;;0.40;;
12005;SDS011;6062;47.294;12.182;2022-11-27T04:30:56;0.50;;;0.50;;
12005;SDS011;6062;47.294;12.182;2022-11-27T04:33:22;0.40;;;0.40;;
12005;SDS011;6062;47.294;12.182;2022-11-27T04:35:48;0.50;;;0.50;;
12005;SDS011;6062;47.294;12.182;2022-11-27T04:38:15;0.40;;;0.40;;
12005;SDS011;6062;47.294;12.182;2022-11-27T04:40:41;0.40;;;0.40;;
12005;SDS011;6062;47.294;12.182;2022-11-27T04:43:07;0.70;;;0.70;;
12005;SDS011;6062;47.294;12.182;2022-11-27T04:45:33;0.50;;;0.50;;
12005;SDS011;6062;47.294;12.182;2022-11-27T04:47:58;0.50;;;0.50;;
12005;SDS011;6062;47.294;12.182;2022-11-27T04:50:24;0.50;;;0.50;;
12005;SDS011;6062;47.294;12.182;2022-11-27T04:52:50;0.43;;;0.43;;
12005;SDS011;6062;47.294;12.182;2022-11-27T04:55:15;0.47;;;0.40;;
12005;SDS011;6062;47.294;12.182;2022-11-27T04:57:41;0.63;;;0.50;;
12005;SDS011;6062;47.294;12.182;2022-11-27T05:00:07;0.50;;;0.50;;
12005;SDS011;6062;47.294;12.182;2022-11-27T05:02:33;0.53;;;0.53;;
12005;SDS011;6062;47.294;12.182;2022-11-27T05:04:59;0.50;;;0.50;;
12005;SDS011;6062;47.294;12.182;2022-11-27T05:07:25;0.50;;;0.50;;
12005;SDS011;6062;47.294;12.182;2022-11-27T05:09:51;0.40;;;0.40;;
12005;SDS011;6062;47.294;12.182;2022-11-27T05:12:16;0.47;;;0.47;;
12005;SDS011;6062;47.294;12.182;2022-11-27T05:14:42;0.40;;;0.40;;
12005;SDS011;6062;47.294;12.182;2022-11-27T05:17:08;0.47;;;0.47;;
12005;SDS011;6062;47.294;12.182;2022-11-27T05:19:34;0.40;;;0.40;;
12005;SDS011;6062;47.294;12.182;2022-11-27T05:22:00;0.50;;;0.50;;
12005;SDS011;6062;47.294;12.182;2022-11-27T05:24:26;0.47;;;0.47;;
12005;SDS011;6062;47.294;12.182;2022-11-27T05:26:53;0.40;;;0.40;;
12005;SDS011;6062;47.294;12.182;2022-11-27T05:29:20;0.40;;;0.40;;
12005;SDS011;6062;47.294;12.182;2022-11-27T05:31:47;0.40;;;0.40;;
12005;SDS011;6062;47.294;12.182;2022-11-27T05:34:13;0.40;;;0.40;;
12005;SDS011;6062;47.294;12.182;2022-11-27T05:36:39;0.50;;;0.50;;
12005;SDS011;6062;47.294;12.182;2022-11-27T05:39:07;0.50;;;0.50;;
12005;SDS011;6062;47.294;12.182;2022-11-27T05:41:34;0.40;;;0.40;;
12005;SDS011;6062;47.294;12.182;2022-11-27T05:44:02;0.50;;;0.50;;
12005;SDS011;6062;47.294;12.182;2022-11-27T05:46:28;0.53;;;0.53;;
12005;SDS011;6062;47.294;12.182;2022-11-27T05:48:53;0.50;;;0.50;;
12005;SDS011;6062;47.294;12.182;2022-11-27T05:51:19;0.63;;;0.63;;
12005;SDS011;6062;47.294;12.182;2022-11-27T05:53:45;0.67;;;0.67;;
12005;SDS011;6062;47.294;12.182;2022-11-27T05:56:12;0.60;;;0.60;;
12005;SDS011;6062;47.294;12.182;2022-11-27T05:58:41;0.60;;;0.60;;
12005;SDS011;6062;47.294;12.182;2022-11-27T06:01:10;0.60;;;0.60;;
12005;SDS011;6062;47.294;12.182;2022-11-27T06:03:37;0.60;;;0.60;;
12005;SDS011;6062;47.294;12.182;2022-11-27T06:06:04;0.50;;;0.50;;
12005;SDS011;6062;47.294;12.182;2022-11-27T06:08:31;0.40;;;0.40;;
12005;SDS011;6062;47.294;12.182;2022-11-27T06:10:57;0.50;;;0.50;;
12005;SDS011;6062;47.294;12.182;2022-11-27T06:13:23;0.50;;;0.50;;
12005;SDS011;6062;47.294;12.182;2022-11-27T06:15:48;0.60;;;0.60;;
12005;SDS011;6062;47.294;12.182;2022-11-27T06:18:14;0.40;;;0.40;;
12005;SDS011;6062;47.294;12.182;2022-11-27T06:20:40;0.40;;;0.40;;
12005;SDS011;6062;47.294;12.182;2022-11-27T06:23:05;0.50;;;0.50;;
12005;SDS011;6062;47.294;12.182;2022-11-27T06:25:31;0.40;;;0.40;;
12005;SDS011;6062;47.294;12.182;2022-11-27T06:27:57;0.50;;;0.50;;
12005;SDS011;6062;47.294;12.182;2022-11-27T06:30:22;0.50;;;0.50;;
12005;SDS011;6062;47.294;12.182;2022-11-27T06:32:48;0.40;;;0.40;;
12005;SDS011;6062;47.294;12.182;2022-11-27T06:35:13;0.50;;;0.50;;
12005;SDS011;6062;47.294;12.182;2022-11-27T06:37:39;0.47;;;0.47;;
12005;SDS011;6062;47.294;12.182;2022-11-27T06:40:05;0.70;;;0.70;;
12005;SDS011;6062;47.294;12.182;2022-11-27T06:42:31;0.30;;;0.30;;
12005;SDS011;6062;47.294;12.182;2022-11-27T06:44:57;0.40;;;0.40;;
12005;SDS011;6062;47.294;12.182;2022-11-27T06:47:23;0.50;;;0.50;;
12005;SDS011;6062;47.294;12.182;2022-11-27T06:49:48;0.40;;;0.40;;
12005;SDS011;6062;47.294;12.182;2022-11-27T06:52:14;0.50;;;0.50;;
12005;SDS011;6062;47.294;12.182;2022-11-27T06:54:40;0.50;;;0.50;;
12005;SDS011;6062;47.294;12.182;2022-11-27T06:57:05;0.50;;;0.50;;
12005;SDS011;6062;47.294;12.182;2022-11-27T06:59:31;0.50;;;0.50;;
12005;SDS011;6062;47.294;12.182;2022-11-27T07:01:56;0.47;;;0.47;;
12005;SDS011;6062;47.294;12.182;2022-11-27T07:04:22;0.40;;;0.40;;
12005;SDS011;6062;47.294;12.182;2022-11-27T07:06:48;0.40;;;0.40;;
12005;SDS011;6062;47.294;12.182;2022-11-27T07:09:14;0.50;;;0.50;;
12005;SDS011;6062;47.294;12.182;2022-11-27T07:11:39;0.50;;;0.50;;
12005;SDS011;6062;47.294;12.182;2022-11-27T07:14:05;0.50;;;0.50;;
12005;SDS011;6062;47.294;12.182;2022-11-27T07:16:32;0.40;;;0.40;;
12005;SDS011;6062;47.294;12.182;2022-11-27T07:19:01;0.40;;;0.40;;
12005;SDS011;6062;47.294;12.182;2022-11-27T07:21:32;0.40;;;0.40;;
12005;SDS011;6062;47.294;12.182;2022-11-27T07:24:00;0.50;;;0.50;;
12005;SDS011;6062;47.294;12.182;2022-11-27T07:26:26;0.50;;;0.50;;
12005;SDS011;6062;47.294;12.182;2022-11-27T07:28:54;0.67;;;0.60;;
12005;SDS011;6062;47.294;12.182;2022-11-27T07:31:22;0.50;;;0.50;;
12005;SDS011;6062;47.294;12.182;2022-11-27T07:33:54;0.40;;;0.40;;
12005;SDS011;6062;47.294;12.182;2022-11-27T07:36:22;0.50;;;0.50;;
12005;SDS011;6062;47.294;12.182;2022-11-27T07:38:52;0.50;;;0.50;;
12005;SDS011;6062;47.294;12.182;2022-11-27T07:41:18;0.40;;;0.40;;
12005;SDS011;6062;47.294;12.182;2022-11-27T07:43:44;0.40;;;0.40;;
12005;SDS011;6062;47.294;12.182;2022-11-27T07:46:12;0.40;;;0.40;;
12005;SDS011;6062;47.294;12.182;2022-11-27T07:48:44;0.40;;;0.40;;
12005;SDS011;6062;47.294;12.182;2022-11-27T07:51:11;0.40;;;0.40;;
12005;SDS011;6062;47.294;12.182;2022-11-27T07:53:39;0.30;;;0.30;;
12005;SDS011;6062;47.294;12.182;2022-11-27T07:56:06;0.30;;;0.30;;
12005;SDS011;6062;47.294;12.182;2022-11-27T07:58:35;0.30;;;0.30;;
12005;SDS011;6062;47.294;12.182;2022-11-27T08:01:04;0.30;;;0.30;;
12005;SDS011;6062;47.294;12.182;2022-11-27T08:03:32;0.40;;;0.40;;
12005;SDS011;6062;47.294;12.182;2022-11-27T08:05:58;0.30;;;0.30;;
12005;SDS011;6062;47.294;12.182;2022-11-27T08:08:23;0.30;;;0.30;;
12005;SDS011;6062;47.294;12.182;2022-11-27T08:10:49;0.20;;;0.20;;
12005;SDS011;6062;47.294;12.182;2022-11-27T08:13:15;0.20;;;0.20;;
12005;SDS011;6062;47.294;12.182;2022-11-27T08:15:40;0.20;;;0.20;;
12005;SDS011;6062;47.294;12.182;2022-11-27T08:18:06;0.10;;;0.10;;
12005;SDS011;6062;47.294;12.182;2022-11-27T08:20:32;0.20;;;0.20;;
12005;SDS011;6062;47.294;12.182;2022-11-27T08:22:58;0.20;;;0.20;;
12005;SDS011;6062;47.294;12.182;2022-11-27T08:25:24;0.20;;;0.20;;
12005;SDS011;6062;47.294;12.182;2022-11-27T08:27:50;0.13;;;0.13;;
12005;SDS011;6062;47.294;12.182;2022-11-27T08:30:16;0.20;;;0.20;;
12005;SDS011;6062;47.294;12.182;2022-11-27T08:32:42;0.10;;;0.10;;
12005;SDS011;6062;47.294;12.182;2022-11-27T08:35:08;0.10;;;0.10;;
12005;SDS011;6062;47.294;12.182;2022-11-27T08:37:35;0.10;;;0.10;;
12005;SDS011;6062;47.294;12.182;2022-11-27T08:40:01;0.32;;;0.20;;
12005;SDS011;6062;47.294;12.182;2022-11-27T08:42:28;0.10;;;0.10;;
12005;SDS011;6062;47.294;12.182;2022-11-27T08:44:54;0.10;;;0.10;;
12005;SDS011;6062;47.294;12.182;2022-11-27T08:47:20;0.10;;;0.10;;
12005;SDS011;6062;47.294;12.182;2022-11-27T08:49:45;0.10;;;0.10;;
12005;SDS011;6062;47.294;12.182;2022-11-27T08:52:11;0.32;;;0.20;;
12005;SDS011;6062;47.294;12.182;2022-11-27T08:54:37;0.10;;;0.10;;
12005;SDS011;6062;47.294;12.182;2022-11-27T08:57:03;0.10;;;0.10;;
12005;SDS011;6062;47.294;12.182;2022-11-27T08:59:29;0.10;;;0.10;;
12005;SDS011;6062;47.294;12.182;2022-11-27T09:01:55;0.10;;;0.10;;
12005;SDS011;6062;47.294;12.182;2022-11-27T09:04:20;0.10;;;0.10;;
12005;SDS011;6062;47.294;12.182;2022-11-27T09:06:46;0.10;;;0.10;;
12005;SDS011;6062;47.294;12.182;2022-11-27T09:09:15;0.10;;;0.10;;
12005;SDS011;6062;47.294;12.182;2022-11-27T09:11:41;0.35;;;0.10;;
12005;SDS011;6062;47.294;12.182;2022-11-27T09:14:07;0.13;;;0.10;;
12005;SDS011;6062;47.294;12.182;2022-11-27T09:16:35;0.70;;;0.20;;
12005;SDS011;6062;47.294;12.182;2022-11-27T09:19:00;0.15;;;0.15;;
12005;SDS011;6062;47.294;12.182;2022-11-27T09:21:27;0.08;;;0.08;;
12005;SDS011;6062;47.294;12.182;2022-11-27T09:23:55;0.10;;;0.10;;
12005;SDS011;6062;47.294;12.182;2022-11-27T09:26:23;0.10;;;0.10;;
12005;SDS011;6062;47.294;12.182;2022-11-27T09:28:50;0.10;;;0.10;;
12005;SDS011;6062;47.294;12.182;2022-11-27T09:31:18;0.10;;;0.10;;
12005;SDS011;6062;47.294;12.182;2022-11-27T09:33:45;0.10;;;0.10;;
12005;SDS011;6062;47.294;12.182;2022-11-27T09:36:17;0.10;;;0.10;;
12005;SDS011;6062;47.294;12.182;2022-11-27T09:38:45;0.03;;;0.03;;
12005;SDS011;6062;47.294;12.182;2022-11-27T09:41:31;0.10;;;0.10;;
12005;SDS011;6062;47.294;12.182;2022-11-27T09:46:57;0.10;;;0.10;;
12005;SDS011;6062;47.294;12.182;2022-11-27T09:52:33;0.32;;;0.10;;
12005;SDS011;6062;47.294;12.182;2022-11-27T09:55:11;0.10;;;0.10;;
12005;SDS011;6062;47.294;12.182;2022-11-27T09:57:54;0.10;;;0.10;;
12005;SDS011;6062;47.294;12.182;2022-11-27T10:00:37;0.10;;;0.10;;
12005;SDS011;6062;47.294;12.182;2022-11-27T10:03:02;0.00;;;0.00;;
12005;SDS011;6062;47.294;12.182;2022-11-27T10:05:41;0.10;;;0.10;;
12005;SDS011;6062;47.294;12.182;2022-11-27T10:15:06;0.00;;;0.00;;
12005;SDS011;6062;47.294;12.182;2022-11-27T10:20:49;0.10;;;0.10;;
12005;SDS011;6062;47.294;12.182;2022-11-27T10:23:41;0.20;;;0.10;;
12005;SDS011;6062;47.294;12.182;2022-11-27T10:26:24;0.10;;;0.10;;
12005;SDS011;6062;47.294;12.182;2022-11-27T10:32:14;0.10;;;0.10;;
12005;SDS011;6062;47.294;12.182;2022-11-27T10:34:47;0.00;;;0.00;;
12005;SDS011;6062;47.294;12.182;2022-11-27T10:39:55;0.03;;;0.03;;
12005;SDS011;6062;47.294;12.182;2022-11-27T10:45:53;0.00;;;0.00;;
12005;SDS011;6062;47.294;12.182;2022-11-27T10:48:25;0.22;;;0.10;;
12005;SDS011;6062;47.294;12.182;2022-11-27T10:50:53;0.00;;;0.00;;
12005;SDS011;6062;47.294;12.182;2022-11-27T10:59:03;0.00;;;0.00;;
12005;SDS011;6062;47.294;12.182;2022-11-27T11:01:41;0.10;;;0.10;;
12005;SDS011;6062;47.294;12.182;2022-11-27T11:04:13;0.00;;;0.00;;
12005;SDS011;6062;47.294;12.182;2022-11-27T11:06:46;0.10;;;0.10;;
12005;SDS011;6062;47.294;12.182;2022-11-27T11:11:48;0.22;;;0.10;;
12005;SDS011;6062;47.294;12.182;2022-11-27T11:14:24;0.10;;;0.10;;
12005;SDS011;6062;47.294;12.182;2022-11-27T11:16:51;0.13;;;0.10;;
12005;SDS011;6062;47.294;12.182;2022-11-27T11:21:56;0.25;;;0.10;;
12005;SDS011;6062;47.294;12.182;2022-11-27T11:24:30;0.10;;;0.10;;
12005;SDS011;6062;47.294;12.182;2022-11-27T11:27:04;0.03;;;0.03;;
12005;SDS011;6062;47.294;12.182;2022-11-27T11:29:55;0.10;;;0.10;;
12005;SDS011;6062;47.294;12.182;2022-11-27T11:32:34;0.10;;;0.10;;
12005;SDS011;6062;47.294;12.182;2022-11-27T11:35:49;0.10;;;0.10;;
12005;SDS011;6062;47.294;12.182;2022-11-27T11:38:00;0.00;;;0.00;;
12005;SDS011;6062;47.294;12.182;2022-11-27T11:40:33;0.47;;;0.10;;
12005;SDS011;6062;47.294;12.182;2022-11-27T11:45:48;0.10;;;0.10;;
12005;SDS011;6062;47.294;12.182;2022-11-27T11:48:23;0.20;;;0.10;;
12005;SDS011;6062;47.294;12.182;2022-11-27T11:50:57;0.10;;;0.10;;
12005;SDS011;6062;47.294;12.182;2022-11-27T11:53:46;0.10;;;0.10;;
12005;SDS011;6062;47.294;12.182;2022-11-27T11:56:42;0.10;;;0.10;;
12005;SDS011;6062;47.294;12.182;2022-11-27T11:59:19;0.10;;;0.10;;
12005;SDS011;6062;47.294;12.182;2022-11-27T12:11:08;0.10;;;0.10;;
12005;SDS011;6062;47.294;12.182;2022-11-27T12:25:13;0.17;;;0.17;;
12005;SDS011;6062;47.294;12.182;2022-11-27T12:42:26;0.20;;;0.20;;
12005;SDS011;6062;47.294;12.182;2022-11-27T12:45:21;0.20;;;0.20;;
12005;SDS011;6062;47.294;12.182;2022-11-27T12:48:00;0.10;;;0.10;;
12005;SDS011;6062;47.294;12.182;2022-11-27T12:51:37;0.20;;;0.20;;
12005;SDS011;6062;47.294;12.182;2022-11-27T12:53:56;0.20;;;0.20;;
12005;SDS011;6062;47.294;12.182;2022-11-27T12:56:32;0.20;;;0.20;;
12005;SDS011;6062;47.294;12.182;2022-11-27T12:59:15;0.20;;;0.20;;
12005;SDS011;6062;47.294;12.182;2022-11-27T13:02:01;0.32;;;0.32;;
12005;SDS011;6062;47.294;12.182;2022-11-27T13:05:06;0.30;;;0.30;;
12005;SDS011;6062;47.294;12.182;2022-11-27T13:07:46;0.20;;;0.20;;
12005;SDS011;6062;47.294;12.182;2022-11-27T13:13:16;0.35;;;0.30;;
12005;SDS011;6062;47.294;12.182;2022-11-27T13:16:02;0.30;;;0.30;;
12005;SDS011;6062;47.294;12.182;2022-11-27T13:18:44;0.30;;;0.30;;
12005;SDS011;6062;47.294;12.182;2022-11-27T13:21:34;0.30;;;0.30;;
12005;SDS011;6062;47.294;12.182;2022-11-27T13:24:03;0.40;;;0.40;;
12005;SDS011;6062;47.294;12.182;2022-11-27T13:29:12;0.40;;;0.40;;
12005;SDS011;6062;47.294;12.182;2022-11-27T13:31:50;0.40;;;0.40;;
12005;SDS011;6062;47.294;12.182;2022-11-27T13:34:22;0.40;;;0.40;;
12005;SDS011;6062;47.294;12.182;2022-11-27T13:36:57;0.32;;;0.32;;
12005;SDS011;6062;47.294;12.182;2022-11-27T13:39:33;0.40;;;0.40;;
12005;SDS011;6062;47.294;12.182;2022-11-27T13:44:38;0.40;;;0.40;;
12005;SDS011;6062;47.294;12.182;2022-11-27T13:47:09;0.40;;;0.40;;
12005;SDS011;6062;47.294;12.182;2022-11-27T13:49:40;0.30;;;0.30;;
12005;SDS011;6062;47.294;12.182;2022-11-27T13:52:13;0.47;;;0.47;;
12005;SDS011;6062;47.294;12.182;2022-11-27T13:54:53;0.40;;;0.40;;
12005;SDS011;6062;47.294;12.182;2022-11-27T13:57:29;0.80;;;0.43;;
12005;SDS011;6062;47.294;12.182;2022-11-27T14:00:00;0.40;;;0.40;;
12005;SDS011;6062;47.294;12.182;2022-11-27T14:02:53;0.40;;;0.40;;
12005;SDS011;6062;47.294;12.182;2022-11-27T14:05:19;0.40;;;0.40;;
12005;SDS011;6062;47.294;12.182;2022-11-27T14:08:15;0.40;;;0.40;;
12005;SDS011;6062;47.294;12.182;2022-11-27T14:13:36;0.50;;;0.50;;
12005;SDS011;6062;47.294;12.182;2022-11-27T14:16:27;0.50;;;0.50;;
12005;SDS011;6062;47.294;12.182;2022-11-27T14:19:01;0.40;;;0.40;;
12005;SDS011;6062;47.294;12.182;2022-11-27T14:23:59;0.50;;;0.50;;
12005;SDS011;6062;47.294;12.182;2022-11-27T14:26:29;0.40;;;0.40;;
12005;SDS011;6062;47.294;12.182;2022-11-27T14:28:56;0.40;;;0.40;;
12005;SDS011;6062;47.294;12.182;2022-11-27T14:31:28;0.40;;;0.40;;
12005;SDS011;6062;47.294;12.182;2022-11-27T14:33:59;0.40;;;0.40;;
12005;SDS011;6062;47.294;12.182;2022-11-27T14:36:29;0.40;;;0.40;;
12005;SDS011;6062;47.294;12.182;2022-11-27T14:39:02;0.50;;;0.50;;
12005;SDS011;6062;47.294;12.182;2022-11-27T14:41:29;0.40;;;0.40;;
12005;SDS011;6062;47.294;12.182;2022-11-27T14:44:13;0.40;;;0.40;;
12005;SDS011;6062;47.294;12.182;2022-11-27T14:46:39;0.40;;;0.40;;
12005;SDS011;6062;47.294;12.182;2022-11-27T14:49:05;0.40;;;0.40;;
12005;SDS011;6062;47.294;12.182;2022-11-27T14:51:42;0.50;;;0.50;;
12005;SDS011;6062;47.294;12.182;2022-11-27T14:54:12;0.40;;;0.40;;
12005;SDS011;6062;47.294;12.182;2022-11-27T14:57:05;0.50;;;0.50;;
12005;SDS011;6062;47.294;12.182;2022-11-27T15:02:37;0.60;;;0.60;;
12005;SDS011;6062;47.294;12.182;2022-11-27T15:05:04;0.50;;;0.50;;
12005;SDS011;6062;47.294;12.182;2022-11-27T15:07:31;0.57;;;0.57;;
12005;SDS011;6062;47.294;12.182;2022-11-27T15:10:01;0.50;;;0.50;;
12005;SDS011;6062;47.294;12.182;2022-11-27T15:12:43;0.50;;;0.50;;
12005;SDS011;6062;47.294;12.182;2022-11-27T15:15:17;0.40;;;0.40;;
12005;SDS011;6062;47.294;12.182;2022-11-27T15:17:49;0.40;;;0.40;;
12005;SDS011;6062;47.294;12.182;2022-11-27T15:20:24;0.50;;;0.50;;
12005;SDS011;6062;47.294;12.182;2022-11-27T15:23:04;0.60;;;0.60;;
12005;SDS011;6062;47.294;12.182;2022-11-27T15:25:41;0.50;;;0.50;;
12005;SDS011;6062;47.294;12.182;2022-11-27T15:30:53;0.40;;;0.40;;
12005;SDS011;6062;47.294;12.182;2022-11-27T15:33:38;0.50;;;0.50;;
12005;SDS011;6062;47.294;12.182;2022-11-27T15:36:13;0.60;;;0.60;;
12005;SDS011;6062;47.294;12.182;2022-11-27T15:38:43;0.60;;;0.60;;
12005;SDS011;6062;47.294;12.182;2022-11-27T15:43:49;0.60;;;0.60;;
12005;SDS011;6062;47.294;12.182;2022-11-27T15:46:16;0.50;;;0.50;;
12005;SDS011;6062;47.294;12.182;2022-11-27T15:48:58;0.50;;;0.50;;
12005;SDS011;6062;47.294;12.182;2022-11-27T15:51:24;0.50;;;0.50;;
12005;SDS011;6062;47.294;12.182;2022-11-27T15:53:50;0.40;;;0.40;;
12005;SDS011;6062;47.294;12.182;2022-11-27T15:56:16;0.47;;;0.47;;
12005;SDS011;6062;47.294;12.182;2022-11-27T15:58:42;0.50;;;0.50;;
12005;SDS011;6062;47.294;12.182;2022-11-27T16:01:08;0.50;;;0.50;;
12005;SDS011;6062;47.294;12.182;2022-11-27T16:03:35;0.50;;;0.50;;
12005;SDS011;6062;47.294;12.182;2022-11-27T16:06:02;0.50;;;0.50;;
12005;SDS011;6062;47.294;12.182;2022-11-27T16:08:29;0.50;;;0.50;;
12005;SDS011;6062;47.294;12.182;2022-11-27T16:10:58;0.50;;;0.50;;
12005;SDS011;6062;47.294;12.182;2022-11-27T16:13:31;0.40;;;0.40;;
12005;SDS011;6062;47.294;12.182;2022-11-27T16:16:04;0.50;;;0.50;;
12005;SDS011;6062;47.294;12.182;2022-11-27T16:18:32;0.40;;;0.40;;
12005;SDS011;6062;47.294;12.182;2022-11-27T16:21:02;0.40;;;0.40;;
12005;SDS011;6062;47.294;12.182;2022-11-27T16:23:31;0.50;;;0.50;;
12005;SDS011;6062;47.294;12.182;2022-11-27T16:25:57;0.60;;;0.60;;
12005;SDS011;6062;47.294;12.182;2022-11-27T16:28:24;0.60;;;0.60;;
12005;SDS011;6062;47.294;12.182;2022-11-27T16:30:51;0.57;;;0.57;;
12005;SDS011;6062;47.294;12.182;2022-11-27T16:33:19;0.60;;;0.60;;
12005;SDS011;6062;47.294;12.182;2022-11-27T16:35:45;0.60;;;0.60;;
12005;SDS011;6062;47.294;12.182;2022-11-27T16:38:11;0.40;;;0.40;;
12005;SDS011;6062;47.294;12.182;2022-11-27T16:40:37;0.50;;;0.50;;
12005;SDS011;6062;47.294;12.182;2022-11-27T16:43:03;0.50;;;0.50;;
12005;SDS011;6062;47.294;12.182;2022-11-27T16:45:29;0.40;;;0.40;;
12005;SDS011;6062;47.294;12.182;2022-11-27T16:47:54;0.50;;;0.50;;
12005;SDS011;6062;47.294;12.182;2022-11-27T16:50:20;0.50;;;0.50;;
12005;SDS011;6062;47.294;12.182;2022-11-27T16:52:48;0.50;;;0.50;;
12005;SDS011;6062;47.294;12.182;2022-11-27T16:55:13;0.50;;;0.50;;
12005;SDS011;6062;47.294;12.182;2022-11-27T16:57:39;0.60;;;0.60;;
12005;SDS011;6062;47.294;12.182;2022-11-27T17:00:05;0.50;;;0.50;;
12005;SDS011;6062;47.294;12.182;2022-11-27T17:02:31;0.40;;;0.40;;
12005;SDS011;6062;47.294;12.182;2022-11-27T17:04:57;0.50;;;0.50;;
12005;SDS011;6062;47.294;12.182;2022-11-27T17:07:23;0.50;;;0.50;;
12005;SDS011;6062;47.294;12.182;2022-11-27T17:09:48;0.50;;;0.50;;
12005;SDS011;6062;47.294;12.182;2022-11-27T17:12:14;0.40;;;0.40;;